Time;durP1;ratioP1;P1;durP2;ratioP2;P2;SDS_P1;SDS_P2;PMS_P1;PMS_P2;Temp;Humidity;BMP_temperature;BMP_pressure;BME280_temperature;BME280_humidity;BME280_pressure;Samples;Min_cycle;Max_cycle;Signal;HPM_P1;HPM_P2
2023/03/30 00:02:22;;;;;;;;;5.33;4.33;;;;;;;;117503;1181;25493;-63
2023/03/30 00:04:50;;;;;;;;;4.00;4.00;;;;;;;;117857;1180;24901;-64
2023/03/30 00:07:19;;;;;;;;;5.00;3.00;;;;;;;;117478;1181;25221;-63
2023/03/30 00:09:48;;;;;;;;;4.33;3.00;;;;;;;;117820;1180;24997;-63
2023/03/30 00:12:19;;;;;;;;;4.00;3.00;;;;;;;;117827;1181;25577;-62
2023/03/30 00:14:48;;;;;;;;;3.33;3.33;;;;;;;;117859;1180;24711;-63
2023/03/30 00:17:16;;;;;;;;;5.50;4.00;;;;;;;;117513;1185;24948;-63
2023/03/30 00:19:45;;;;;;;;;5.00;4.50;;;;;;;;117858;1180;24820;-63
2023/03/30 00:22:13;;;;;;;;;3.50;3.50;;;;;;;;117835;1181;25625;-63
2023/03/30 00:24:41;;;;;;;;;4.67;4.33;;;;;;;;117862;1180;25287;-63
2023/03/30 00:27:10;;;;;;;;;4.75;3.25;;;;;;;;117827;1180;25030;-63
2023/03/30 00:29:38;;;;;;;;;3.33;2.33;;;;;;;;117468;1180;24979;-63
2023/03/30 00:32:07;;;;;;;;;6.00;4.00;;;;;;;;117484;1180;25093;-63
2023/03/30 00:34:36;;;;;;;;;3.00;3.00;;;;;;;;117811;1180;24957;-63
2023/03/30 00:37:04;;;;;;;;;5.00;5.00;;;;;;;;117526;1180;25044;-63
2023/03/30 00:39:32;;;;;;;;;5.33;4.33;;;;;;;;117838;1180;25293;-62
2023/03/30 00:42:01;;;;;;;;;5.00;4.33;;;;;;;;117824;1186;24755;-63
2023/03/30 00:45:06;;;;;;;;;3.33;3.00;;;;;;;;117809;1180;24951;-63
2023/03/30 00:47:39;;;;;;;;;7.33;4.33;;;;;;;;117818;1180;25438;-63
2023/03/30 00:50:09;;;;;;;;;3.00;3.00;;;;;;;;117819;1193;25348;-63
2023/03/30 00:52:38;;;;;;;;;5.00;5.00;;;;;;;;117807;1180;25174;-63
2023/03/30 00:55:08;;;;;;;;;5.33;4.00;;;;;;;;117495;1193;25550;-63
2023/03/30 00:57:38;;;;;;;;;3.00;2.00;;;;;;;;117476;1180;25342;-63
2023/03/30 01:00:09;;;;;;;;;2.00;2.00;;;;;;;;117512;1180;25555;-63
2023/03/30 01:02:44;;;;;;;;;4.00;4.00;;;;;;;;117497;1185;25104;-63
2023/03/30 01:05:13;;;;;;;;;6.00;6.00;;;;;;;;117803;1180;25692;-63
2023/03/30 01:07:45;;;;;;;;;3.50;3.50;;;;;;;;117810;1182;25553;-63
2023/03/30 01:10:13;;;;;;;;;5.50;5.00;;;;;;;;117852;1180;25220;-63
2023/03/30 01:12:42;;;;;;;;;3.67;3.67;;;;;;;;117826;1180;25035;-63
2023/03/30 01:15:11;;;;;;;;;4.00;3.00;;;;;;;;117455;1193;25764;-63
2023/03/30 01:17:48;;;;;;;;;6.00;4.50;;;;;;;;117763;1187;25203;-63
2023/03/30 01:20:19;;;;;;;;;4.00;4.00;;;;;;;;117786;1181;25577;-63
2023/03/30 01:23:26;;;;;;;;;5.00;5.00;;;;;;;;117794;1181;25328;-63
2023/03/30 01:26:05;;;;;;;;;4.33;4.33;;;;;;;;117747;1180;25192;-63
2023/03/30 01:28:40;;;;;;;;;5.00;4.00;;;;;;;;117485;1193;25217;-63
2023/03/30 01:31:17;;;;;;;;;6.00;3.00;;;;;;;;117808;1181;25662;-64
2023/03/30 01:33:57;;;;;;;;;4.75;4.00;;;;;;;;117693;1190;24880;-63
2023/03/30 01:37:00;;;;;;;;;6.00;6.00;;;;;;;;117801;1180;25064;-64
2023/03/30 01:40:08;;;;;;;;;7.00;5.25;;;;;;;;117780;1193;26315;-64
2023/03/30 01:42:56;;;;;;;;;6.67;4.67;;;;;;;;117772;1193;25738;-64
2023/03/30 01:45:44;;;;;;;;;5.50;5.50;;;;;;;;117802;1180;25506;-63
2023/03/30 01:48:14;;;;;;;;;6.50;6.50;;;;;;;;117475;1180;25052;-63
2023/03/30 01:50:48;;;;;;;;;6.33;4.33;;;;;;;;117826;1189;24832;-62
2023/03/30 01:53:24;;;;;;;;;4.00;4.00;;;;;;;;117860;1180;25130;-63
2023/03/30 01:56:23;;;;;;;;;4.50;4.00;;;;;;;;117467;1193;25444;-63
2023/03/30 01:59:13;;;;;;;;;5.67;4.00;;;;;;;;117838;1180;25125;-63
2023/03/30 02:01:42;;;;;;;;;7.00;4.00;;;;;;;;117818;1191;25008;-63
2023/03/30 02:04:11;;;;;;;;;3.00;3.00;;;;;;;;117499;1191;25138;-63
2023/03/30 02:06:45;;;;;;;;;3.00;3.00;;;;;;;;117500;1180;25687;-63
2023/03/30 02:09:17;;;;;;;;;4.00;4.00;;;;;;;;117464;1191;25151;-63
2023/03/30 02:11:48;;;;;;;;;5.67;5.67;;;;;;;;117792;1186;25004;-64
2023/03/30 02:14:18;;;;;;;;;7.50;4.00;;;;;;;;117819;1181;25746;-63
2023/03/30 02:16:51;;;;;;;;;5.00;5.00;;;;;;;;117836;1180;24909;-63
2023/03/30 02:19:19;;;;;;;;;7.00;5.50;;;;;;;;117499;1184;25697;-63
2023/03/30 02:21:49;;;;;;;;;4.50;4.50;;;;;;;;117843;1193;25027;-63
2023/03/30 02:24:22;;;;;;;;;9.00;5.50;;;;;;;;117826;1186;25204;-64
2023/03/30 02:26:51;;;;;;;;;4.33;4.00;;;;;;;;117466;1180;24975;-63
2023/03/30 02:29:21;;;;;;;;;5.00;5.00;;;;;;;;117848;1193;25636;-63
2023/03/30 02:31:54;;;;;;;;;3.50;3.00;;;;;;;;117465;1180;24762;-63
2023/03/30 02:34:44;;;;;;;;;6.00;5.00;;;;;;;;117838;1180;25457;-62
2023/03/30 02:37:50;;;;;;;;;5.00;4.50;;;;;;;;117839;1186;25216;-63
2023/03/30 02:40:30;;;;;;;;;6.50;5.50;;;;;;;;117836;1180;25576;-63
2023/03/30 02:43:16;;;;;;;;;6.50;3.50;;;;;;;;117821;1180;25645;-63
2023/03/30 02:45:51;;;;;;;;;6.00;5.00;;;;;;;;117834;1180;25496;-63
2023/03/30 02:48:26;;;;;;;;;6.33;4.33;;;;;;;;117832;1193;24877;-62
2023/03/30 02:51:38;;;;;;;;;4.33;4.33;;;;;;;;117851;1193;25538;-63
2023/03/30 02:54:42;;;;;;;;;1.00;1.00;;;;;;;;117484;1193;25510;-64
2023/03/30 02:57:31;;;;;;;;;4.00;4.00;;;;;;;;117832;1181;24800;-64
2023/03/30 03:00:07;;;;;;;;;7.00;6.00;;;;;;;;117842;1181;24842;-64
2023/03/30 03:02:41;;;;;;;;;6.00;5.00;;;;;;;;117815;1183;25511;-64
2023/03/30 03:05:13;;;;;;;;;6.33;5.00;;;;;;;;117501;1182;25685;-66
2023/03/30 03:07:43;;;;;;;;;4.50;4.50;;;;;;;;117496;1184;24815;-68
2023/03/30 03:10:12;;;;;;;;;6.00;6.00;;;;;;;;117478;1193;25650;-64
2023/03/30 03:12:42;;;;;;;;;4.00;4.00;;;;;;;;117703;1180;25934;-65
2023/03/30 03:15:11;;;;;;;;;7.67;4.67;;;;;;;;117518;1180;25266;-72
2023/03/30 03:17:39;;;;;;;;;5.00;5.00;;;;;;;;117486;1184;26256;-71
2023/03/30 03:20:09;;;;;;;;;6.50;5.00;;;;;;;;117872;1180;24802;-70
2023/03/30 03:22:37;;;;;;;;;6.00;5.00;;;;;;;;117822;1181;25650;-63
2023/03/30 03:25:06;;;;;;;;;5.00;3.00;;;;;;;;117797;1180;25653;-64
2023/03/30 03:27:34;;;;;;;;;10.00;6.00;;;;;;;;117483;1193;24656;-64
2023/03/30 03:30:03;;;;;;;;;9.33;6.33;;;;;;;;117850;1180;24997;-64
2023/03/30 03:32:31;;;;;;;;;5.50;5.50;;;;;;;;117853;1180;24750;-64
2023/03/30 03:35:00;;;;;;;;;8.00;5.00;;;;;;;;117833;1191;25184;-64
2023/03/30 03:37:28;;;;;;;;;5.33;5.33;;;;;;;;117873;1181;25503;-64
2023/03/30 03:39:57;;;;;;;;;6.33;5.67;;;;;;;;117806;1180;25561;-64
2023/03/30 03:42:25;;;;;;;;;6.75;5.00;;;;;;;;117840;1180;24834;-64
2023/03/30 03:44:53;;;;;;;;;4.75;4.00;;;;;;;;117837;1181;25428;-64
2023/03/30 03:47:22;;;;;;;;;3.67;3.00;;;;;;;;117820;1180;25081;-64
2023/03/30 03:49:50;;;;;;;;;4.33;4.00;;;;;;;;117804;1181;24956;-64
2023/03/30 03:52:19;;;;;;;;;3.00;3.00;;;;;;;;117824;1180;25061;-64
2023/03/30 03:54:47;;;;;;;;;6.00;4.00;;;;;;;;117814;1181;24919;-64
2023/03/30 03:57:16;;;;;;;;;5.00;5.00;;;;;;;;117828;1180;25077;-64
2023/03/30 03:59:44;;;;;;;;;5.50;4.50;;;;;;;;117844;1193;24740;-64
2023/03/30 04:02:13;;;;;;;;;4.50;4.00;;;;;;;;117846;1181;24917;-65
2023/03/30 04:04:41;;;;;;;;;3.50;3.50;;;;;;;;117817;1180;25384;-64
2023/03/30 04:07:10;;;;;;;;;6.00;5.00;;;;;;;;117432;1183;25547;-64
2023/03/30 04:09:38;;;;;;;;;6.00;4.67;;;;;;;;117447;1187;25265;-64
2023/03/30 04:12:07;;;;;;;;;5.00;4.00;;;;;;;;117414;1182;25273;-63
2023/03/30 04:14:35;;;;;;;;;6.00;6.00;;;;;;;;117432;1180;24834;-63
2023/03/30 04:17:05;;;;;;;;;6.50;5.00;;;;;;;;117449;1190;24876;-64
2023/03/30 04:19:34;;;;;;;;;4.00;4.00;;;;;;;;117444;1180;25477;-63
2023/03/30 04:22:04;;;;;;;;;6.00;4.50;;;;;;;;117488;1180;25046;-64
2023/03/30 04:24:34;;;;;;;;;5.00;4.00;;;;;;;;117811;1181;24941;-63
2023/03/30 04:27:02;;;;;;;;;4.50;4.50;;;;;;;;117816;1187;24740;-64
2023/03/30 04:29:31;;;;;;;;;5.00;5.00;;;;;;;;117802;1180;25620;-64
2023/03/30 04:32:02;;;;;;;;;5.00;5.00;;;;;;;;117771;1193;25539;-64
2023/03/30 04:34:32;;;;;;;;;5.00;4.00;;;;;;;;117792;1193;25360;-64
2023/03/30 04:37:00;;;;;;;;;5.00;4.00;;;;;;;;117820;1186;25646;-64
2023/03/30 04:39:29;;;;;;;;;6.00;3.50;;;;;;;;117836;1187;25011;-73
2023/03/30 04:42:00;;;;;;;;;4.67;4.00;;;;;;;;117892;1180;25561;-68
2023/03/30 04:44:30;;;;;;;;;4.00;3.67;;;;;;;;117689;1181;24946;-67
2023/03/30 04:46:58;;;;;;;;;5.33;5.33;;;;;;;;117488;1184;25679;-64
2023/03/30 04:49:26;;;;;;;;;7.00;5.00;;;;;;;;117575;1181;24777;-64
2023/03/30 04:51:55;;;;;;;;;5.50;5.00;;;;;;;;117639;1180;25139;-64
2023/03/30 04:54:23;;;;;;;;;4.50;3.00;;;;;;;;117815;1183;25290;-64
2023/03/30 04:56:51;;;;;;;;;4.33;3.00;;;;;;;;117801;1181;25601;-65
2023/03/30 04:59:20;;;;;;;;;3.00;3.00;;;;;;;;117818;1180;24955;-67
2023/03/30 05:01:48;;;;;;;;;3.67;3.67;;;;;;;;117864;1187;25684;-64
2023/03/30 05:04:17;;;;;;;;;6.00;3.50;;;;;;;;117874;1180;25004;-66
2023/03/30 05:06:48;;;;;;;;;5.00;5.00;;;;;;;;117823;1180;25331;-65
2023/03/30 05:09:17;;;;;;;;;6.00;6.00;;;;;;;;117860;1193;24788;-65
2023/03/30 05:11:45;;;;;;;;;6.00;5.00;;;;;;;;117811;1186;25264;-65
2023/03/30 05:14:14;;;;;;;;;6.00;6.00;;;;;;;;117826;1182;25236;-65
2023/03/30 05:16:42;;;;;;;;;6.00;4.00;;;;;;;;117507;1180;25401;-64
2023/03/30 05:19:11;;;;;;;;;8.50;7.00;;;;;;;;117838;1180;26299;-64
2023/03/30 05:21:39;;;;;;;;;7.33;5.33;;;;;;;;117471;1180;24850;-64
2023/03/30 05:24:08;;;;;;;;;7.00;5.00;;;;;;;;117489;1193;25643;-64
2023/03/30 05:26:37;;;;;;;;;5.50;5.00;;;;;;;;117831;1180;24707;-65
2023/03/30 05:29:05;;;;;;;;;6.33;4.67;;;;;;;;117851;1180;25169;-65
2023/03/30 05:31:34;;;;;;;;;7.33;6.00;;;;;;;;117840;1180;25276;-64
2023/03/30 05:34:02;;;;;;;;;5.00;5.00;;;;;;;;117862;1180;24788;-64
2023/03/30 05:36:31;;;;;;;;;5.75;5.75;;;;;;;;117859;1181;25287;-64
2023/03/30 05:38:59;;;;;;;;;7.00;5.50;;;;;;;;117468;1186;25512;-65
2023/03/30 05:41:27;;;;;;;;;7.00;6.00;;;;;;;;117470;1180;25543;-64
2023/03/30 05:43:56;;;;;;;;;7.00;7.00;;;;;;;;117782;1180;24776;-64
2023/03/30 05:46:25;;;;;;;;;10.33;7.67;;;;;;;;117802;1180;25286;-65
2023/03/30 05:48:53;;;;;;;;;12.00;11.00;;;;;;;;117852;1180;25549;-64
2023/03/30 05:51:21;;;;;;;;;8.67;7.67;;;;;;;;117479;1181;25321;-64
2023/03/30 05:53:50;;;;;;;;;10.00;9.00;;;;;;;;117798;1193;25667;-64
2023/03/30 05:56:18;;;;;;;;;12.00;9.00;;;;;;;;117783;1180;25602;-64
2023/03/30 05:58:46;;;;;;;;;11.50;6.00;;;;;;;;117774;1192;25132;-64
2023/03/30 06:01:15;;;;;;;;;9.50;8.00;;;;;;;;117781;1181;25663;-64
2023/03/30 06:03:43;;;;;;;;;9.00;9.00;;;;;;;;117794;1180;25388;-64
2023/03/30 06:06:12;;;;;;;;;10.00;9.33;;;;;;;;117794;1185;25218;-65
2023/03/30 06:08:41;;;;;;;;;9.50;8.50;;;;;;;;117832;1180;25145;-65
2023/03/30 06:11:10;;;;;;;;;8.00;6.50;;;;;;;;117770;1180;24910;-65
2023/03/30 06:13:39;;;;;;;;;7.00;6.00;;;;;;;;117795;1193;24980;-64
2023/03/30 06:16:08;;;;;;;;;5.00;3.50;;;;;;;;117846;1193;25219;-65
2023/03/30 06:18:37;;;;;;;;;8.00;8.00;;;;;;;;117833;1180;25107;-64
2023/03/30 06:21:05;;;;;;;;;7.00;6.50;;;;;;;;117796;1181;25033;-65
2023/03/30 06:23:36;;;;;;;;;7.00;6.00;;;;;;;;117476;1180;25554;-65
2023/03/30 06:26:06;;;;;;;;;6.00;5.33;;;;;;;;117815;1187;24767;-65
2023/03/30 06:28:35;;;;;;;;;8.75;6.50;;;;;;;;117838;1180;24894;-65
2023/03/30 06:31:08;;;;;;;;;6.50;5.50;;;;;;;;117823;1193;25065;-63
2023/03/30 06:33:37;;;;;;;;;6.50;6.50;;;;;;;;117492;1186;24928;-64
2023/03/30 06:36:11;;;;;;;;;7.00;7.00;;;;;;;;117831;1180;24781;-64
2023/03/30 06:38:40;;;;;;;;;7.00;5.00;;;;;;;;117800;1180;24795;-64
2023/03/30 06:41:10;;;;;;;;;10.33;7.00;;;;;;;;117771;1181;24769;-64
2023/03/30 06:43:39;;;;;;;;;9.00;7.00;;;;;;;;117817;1183;25567;-65
2023/03/30 06:46:08;;;;;;;;;9.00;7.00;;;;;;;;117412;1193;25574;-65
2023/03/30 06:48:36;;;;;;;;;5.00;4.33;;;;;;;;117479;1181;24757;-65
2023/03/30 06:51:05;;;;;;;;;7.00;6.00;;;;;;;;117524;1180;25123;-63
2023/03/30 06:53:34;;;;;;;;;10.33;5.67;;;;;;;;117414;1183;25201;-70
2023/03/30 06:56:02;;;;;;;;;10.00;6.00;;;;;;;;117735;1193;25269;-71
2023/03/30 06:58:31;;;;;;;;;6.00;5.00;;;;;;;;117482;1180;25570;-70
2023/03/30 07:01:09;;;;;;;;;8.50;6.50;;;;;;;;117778;1184;25652;-75
2023/03/30 07:03:38;;;;;;;;;8.00;8.00;;;;;;;;117843;1193;25198;-74
2023/03/30 07:06:07;;;;;;;;;8.00;5.00;;;;;;;;117877;1186;25065;-78
2023/03/30 07:08:36;;;;;;;;;8.67;5.67;;;;;;;;117475;1193;25893;-78
2023/03/30 07:11:05;;;;;;;;;8.00;3.50;;;;;;;;117725;1193;25590;-72
2023/03/30 07:13:34;;;;;;;;;4.00;1.50;;;;;;;;117672;1180;24884;-75
2023/03/30 07:16:03;;;;;;;;;7.00;5.00;;;;;;;;117546;1183;25313;-80
2023/03/30 07:18:31;;;;;;;;;9.67;7.33;;;;;;;;117833;1193;24776;-78
2023/03/30 07:20:59;;;;;;;;;5.00;5.00;;;;;;;;117820;1180;25031;-75
2023/03/30 07:23:28;;;;;;;;;6.33;5.67;;;;;;;;117434;1180;25495;-70
2023/03/30 07:25:56;;;;;;;;;10.33;9.00;;;;;;;;117651;1193;24984;-71
2023/03/30 07:28:25;;;;;;;;;6.00;6.00;;;;;;;;117629;1181;25405;-75
2023/03/30 07:30:54;;;;;;;;;9.50;7.25;;;;;;;;117510;1180;25230;-70
2023/03/30 07:33:23;;;;;;;;;6.00;6.00;;;;;;;;117586;1184;25063;-71
2023/03/30 07:35:52;;;;;;;;;8.50;5.00;;;;;;;;117436;1184;24983;-73
2023/03/30 07:38:20;;;;;;;;;6.00;5.50;;;;;;;;117586;1181;25667;-68
2023/03/30 07:40:49;;;;;;;;;4.50;3.00;;;;;;;;117552;1180;25015;-67
2023/03/30 07:43:17;;;;;;;;;9.00;6.50;;;;;;;;117394;1182;25344;-71
2023/03/30 07:45:46;;;;;;;;;5.33;5.00;;;;;;;;117426;1180;24760;-72
2023/03/30 07:48:14;;;;;;;;;8.00;7.00;;;;;;;;117617;1192;24715;-72
2023/03/30 07:50:43;;;;;;;;;7.00;6.00;;;;;;;;117575;1180;25617;-72
2023/03/30 07:53:11;;;;;;;;;9.00;5.50;;;;;;;;117541;1187;25090;-68
2023/03/30 07:55:40;;;;;;;;;12.00;8.00;;;;;;;;117575;1183;25682;-67
2023/03/30 07:58:08;;;;;;;;;8.75;7.00;;;;;;;;117566;1181;25403;-68
2023/03/30 08:00:37;;;;;;;;;7.00;4.50;;;;;;;;117541;1180;25156;-72
2023/03/30 08:03:05;;;;;;;;;11.00;9.50;;;;;;;;117640;1181;25564;-75
2023/03/30 08:05:34;;;;;;;;;9.00;5.00;;;;;;;;117585;1180;26128;-64
2023/03/30 08:08:02;;;;;;;;;7.67;5.67;;;;;;;;117546;1193;25171;-63
2023/03/30 08:10:30;;;;;;;;;7.00;7.00;;;;;;;;117560;1180;25461;-66
2023/03/30 08:13:00;;;;;;;;;12.00;7.00;;;;;;;;117391;1181;24955;-66
2023/03/30 08:15:28;;;;;;;;;10.33;8.67;;;;;;;;117429;1180;25510;-66
2023/03/30 08:17:57;;;;;;;;;9.00;6.00;;;;;;;;117553;1181;25312;-66
2023/03/30 08:20:26;;;;;;;;;6.50;6.00;;;;;;;;117581;1186;25049;-65
2023/03/30 08:22:54;;;;;;;;;7.00;6.50;;;;;;;;117700;1181;25281;-66
2023/03/30 08:25:23;;;;;;;;;7.33;3.33;;;;;;;;117628;1180;25609;-66
2023/03/30 08:27:52;;;;;;;;;9.00;6.00;;;;;;;;117571;1180;25257;-66
2023/03/30 08:30:20;;;;;;;;;14.00;5.00;;;;;;;;117548;1193;24721;-66
2023/03/30 08:32:50;;;;;;;;;6.50;6.00;;;;;;;;117567;1193;25654;-66
2023/03/30 08:35:20;;;;;;;;;11.00;6.00;;;;;;;;117590;1180;24972;-66
2023/03/30 08:37:49;;;;;;;;;5.00;4.00;;;;;;;;117578;1181;24730;-66
2023/03/30 08:40:17;;;;;;;;;9.50;8.00;;;;;;;;117576;1193;25303;-66
2023/03/30 08:42:49;;;;;;;;;6.00;5.00;;;;;;;;117558;1181;24675;-66
2023/03/30 08:45:18;;;;;;;;;6.50;5.50;;;;;;;;117562;1193;25617;-66
2023/03/30 08:47:50;;;;;;;;;6.00;5.67;;;;;;;;117461;1193;25650;-66
2023/03/30 08:50:33;;;;;;;;;5.00;4.00;;;;;;;;117521;1189;24837;-66
2023/03/30 08:53:06;;;;;;;;;7.33;4.33;;;;;;;;117543;1180;25400;-66
2023/03/30 08:55:42;;;;;;;;;7.67;6.00;;;;;;;;117571;1180;25605;-66
2023/03/30 08:58:19;;;;;;;;;9.50;5.50;;;;;;;;117454;1193;25424;-66
2023/03/30 09:00:59;;;;;;;;;7.33;5.00;;;;;;;;117574;1181;25304;-66
2023/03/30 09:04:00;;;;;;;;;6.00;5.00;;;;;;;;117479;1181;25050;-66
2023/03/30 09:06:51;;;;;;;;;8.50;6.00;;;;;;;;117217;1193;24761;-66
2023/03/30 09:09:27;;;;;;;;;9.00;6.00;;;;;;;;117381;1180;25691;-66
2023/03/30 09:12:10;;;;;;;;;12.00;6.00;;;;;;;;117389;1184;25582;-66
2023/03/30 09:14:47;;;;;;;;;8.00;3.00;;;;;;;;117379;1183;24998;-66
2023/03/30 09:17:20;;;;;;;;;6.00;4.25;;;;;;;;117335;1180;24787;-66
2023/03/30 09:20:05;;;;;;;;;3.00;3.00;;;;;;;;117425;1180;25643;-65
2023/03/30 09:22:38;;;;;;;;;5.00;3.00;;;;;;;;117559;1186;24814;-67
2023/03/30 09:25:25;;;;;;;;;6.00;5.00;;;;;;;;117593;1180;25568;-67
2023/03/30 09:28:02;;;;;;;;;5.00;4.00;;;;;;;;117564;1183;24763;-66
2023/03/30 09:30:40;;;;;;;;;5.33;4.33;;;;;;;;117593;1181;25288;-66
2023/03/30 09:33:30;;;;;;;;;9.25;5.50;;;;;;;;117545;1180;25382;-67
2023/03/30 09:36:08;;;;;;;;;2.75;2.75;;;;;;;;117594;1186;24972;-67
2023/03/30 09:38:40;;;;;;;;;5.33;4.00;;;;;;;;117547;1193;25221;-65
2023/03/30 09:41:30;;;;;;;;;7.00;5.50;;;;;;;;117478;1180;25085;-66
2023/03/30 09:44:01;;;;;;;;;10.00;7.00;;;;;;;;117655;1193;25226;-66
2023/03/30 09:46:30;;;;;;;;;7.00;3.00;;;;;;;;117678;1191;24821;-66
2023/03/30 09:49:13;;;;;;;;;5.00;5.00;;;;;;;;117616;1193;24863;-65
2023/03/30 09:52:02;;;;;;;;;5.00;4.00;;;;;;;;117645;1189;25025;-66
2023/03/30 09:54:40;;;;;;;;;7.00;4.00;;;;;;;;117665;1191;25531;-66
2023/03/30 09:57:29;;;;;;;;;7.00;5.25;;;;;;;;117579;1180;25354;-67
2023/03/30 10:00:00;;;;;;;;;6.67;3.67;;;;;;;;117614;1186;25750;-66
2023/03/30 10:02:30;;;;;;;;;7.00;4.00;;;;;;;;117602;1193;25559;-66
2023/03/30 10:05:01;;;;;;;;;6.50;3.00;;;;;;;;117610;1181;25253;-67
2023/03/30 10:07:39;;;;;;;;;2.33;2.33;;;;;;;;117490;1185;25384;-67
2023/03/30 10:10:14;;;;;;;;;8.00;6.00;;;;;;;;117676;1186;25637;-67
2023/03/30 10:12:44;;;;;;;;;4.00;3.00;;;;;;;;117683;1187;25551;-66
2023/03/30 10:15:17;;;;;;;;;4.67;2.67;;;;;;;;117613;1193;25443;-66
2023/03/30 10:17:47;;;;;;;;;7.00;4.00;;;;;;;;117563;1193;25358;-66
2023/03/30 10:20:42;;;;;;;;;6.33;3.00;;;;;;;;117526;1180;25230;-67
2023/03/30 10:23:17;;;;;;;;;5.00;5.00;;;;;;;;117523;1191;25793;-64
2023/03/30 10:25:48;;;;;;;;;7.00;3.00;;;;;;;;117501;1180;24846;-64
2023/03/30 10:28:23;;;;;;;;;5.67;4.33;;;;;;;;117505;1181;25660;-69
2023/03/30 10:30:56;;;;;;;;;5.67;4.67;;;;;;;;117440;1181;25591;-64
2023/03/30 10:33:27;;;;;;;;;5.00;5.00;;;;;;;;117594;1193;25515;-66
2023/03/30 10:35:59;;;;;;;;;2.00;2.00;;;;;;;;117710;1180;25636;-65
2023/03/30 10:38:32;;;;;;;;;4.50;4.50;;;;;;;;117682;1181;25319;-66
2023/03/30 10:41:06;;;;;;;;;6.00;5.00;;;;;;;;117430;1182;24878;-67
2023/03/30 10:43:35;;;;;;;;;5.00;2.00;;;;;;;;117612;1180;24724;-66
2023/03/30 10:46:12;;;;;;;;;5.00;4.50;;;;;;;;117472;1193;25703;-65
2023/03/30 10:48:57;;;;;;;;;6.25;4.50;;;;;;;;117585;1193;25600;-64
2023/03/30 10:51:43;;;;;;;;;9.33;5.00;;;;;;;;117532;1187;25017;-65
2023/03/30 10:54:21;;;;;;;;;5.00;3.00;;;;;;;;117692;1193;25655;-66
2023/03/30 10:56:54;;;;;;;;;6.50;4.50;;;;;;;;117515;1180;25563;-64
2023/03/30 10:59:31;;;;;;;;;6.67;6.00;;;;;;;;117597;1180;25051;-66
2023/03/30 11:02:06;;;;;;;;;6.00;6.00;;;;;;;;117563;1181;25557;-65
2023/03/30 11:04:49;;;;;;;;;5.75;4.25;;;;;;;;117646;1193;25120;-68
2023/03/30 11:07:33;;;;;;;;;4.33;4.33;;;;;;;;117622;1193;25702;-66
2023/03/30 11:10:30;;;;;;;;;8.25;5.00;;;;;;;;117622;1187;24953;-64
2023/03/30 11:13:20;;;;;;;;;4.00;4.00;;;;;;;;117715;1180;25171;-67
2023/03/30 11:16:20;;;;;;;;;8.25;6.00;;;;;;;;117688;1191;25207;-65
2023/03/30 11:19:02;;;;;;;;;5.50;3.00;;;;;;;;117566;1180;25400;-66
2023/03/30 11:21:33;;;;;;;;;5.00;4.50;;;;;;;;117619;1180;25277;-65
2023/03/30 11:24:18;;;;;;;;;6.50;5.00;;;;;;;;117580;1193;25633;-65
2023/03/30 11:27:01;;;;;;;;;10.00;6.50;;;;;;;;117572;1180;24709;-66
2023/03/30 11:29:47;;;;;;;;;2.50;1.00;;;;;;;;117513;1190;25100;-65
2023/03/30 11:32:28;;;;;;;;;6.25;6.25;;;;;;;;117665;1181;25554;-66
2023/03/30 11:35:11;;;;;;;;;7.50;4.00;;;;;;;;117534;1193;25360;-65
2023/03/30 11:37:49;;;;;;;;;8.00;6.75;;;;;;;;117577;1186;25451;-65
2023/03/30 11:40:22;;;;;;;;;5.00;5.00;;;;;;;;117464;1180;25706;-66
2023/03/30 11:42:54;;;;;;;;;5.00;5.00;;;;;;;;117499;1181;25432;-65
2023/03/30 11:45:44;;;;;;;;;6.67;4.00;;;;;;;;117569;1187;25328;-65
2023/03/30 11:48:37;;;;;;;;;5.00;4.67;;;;;;;;117644;1180;25386;-66
2023/03/30 11:51:32;;;;;;;;;6.00;4.67;;;;;;;;117568;1187;25383;-65
2023/03/30 11:54:17;;;;;;;;;10.00;5.00;;;;;;;;117621;1193;25321;-66
2023/03/30 11:56:50;;;;;;;;;4.00;4.00;;;;;;;;117557;1187;25045;-66
2023/03/30 11:59:48;;;;;;;;;7.67;5.67;;;;;;;;117528;1180;25466;-67
2023/03/30 12:02:25;;;;;;;;;7.67;5.67;;;;;;;;117673;1187;25550;-67
2023/03/30 12:05:10;;;;;;;;;7.50;5.50;;;;;;;;117724;1180;25172;-65
2023/03/30 12:08:00;;;;;;;;;0.67;0.67;;;;;;;;117578;1185;25115;-64
2023/03/30 12:10:39;;;;;;;;;4.00;4.00;;;;;;;;117617;1180;25215;-67
2023/03/30 12:13:13;;;;;;;;;3.33;3.33;;;;;;;;117691;1180;25367;-67
2023/03/30 12:15:54;;;;;;;;;5.00;5.00;;;;;;;;117574;1181;26014;-74
2023/03/30 12:18:51;;;;;;;;;7.00;5.33;;;;;;;;117689;1193;24884;-66
2023/03/30 12:21:51;;;;;;;;;6.75;5.75;;;;;;;;117497;1193;24794;-68
2023/03/30 12:24:28;;;;;;;;;6.00;4.00;;;;;;;;117611;1182;25394;-65
2023/03/30 12:26:57;;;;;;;;;4.67;4.00;;;;;;;;117676;1193;25512;-66
2023/03/30 12:29:47;;;;;;;;;6.00;5.25;;;;;;;;117732;1181;25520;-66
2023/03/30 12:32:26;;;;;;;;;6.00;4.00;;;;;;;;117710;1180;25021;-66
2023/03/30 12:34:57;;;;;;;;;5.00;5.00;;;;;;;;117632;1181;25741;-67
2023/03/30 12:37:32;;;;;;;;;6.00;3.67;;;;;;;;117498;1193;25422;-66
2023/03/30 12:40:08;;;;;;;;;6.00;4.00;;;;;;;;117536;1180;25096;-67
2023/03/30 12:42:45;;;;;;;;;3.00;3.00;;;;;;;;117712;1180;24855;-70
2023/03/30 12:45:13;;;;;;;;;6.00;5.00;;;;;;;;117704;1181;25302;-68
2023/03/30 12:47:56;;;;;;;;;6.00;4.50;;;;;;;;117714;1180;26385;-68
2023/03/30 12:50:37;;;;;;;;;5.67;4.67;;;;;;;;117526;1193;24740;-71
2023/03/30 12:53:42;;;;;;;;;7.00;4.00;;;;;;;;117619;1180;25508;-66
2023/03/30 12:56:25;;;;;;;;;6.00;5.00;;;;;;;;117746;1180;25284;-68
2023/03/30 12:59:21;;;;;;;;;7.00;7.00;;;;;;;;117698;1181;25093;-68
2023/03/30 13:01:49;;;;;;;;;8.00;5.50;;;;;;;;117701;1181;25238;-70
2023/03/30 13:04:21;;;;;;;;;4.50;4.50;;;;;;;;117712;1187;25269;-74
2023/03/30 13:06:56;;;;;;;;;4.50;4.50;;;;;;;;117510;1183;24915;-73
2023/03/30 13:09:24;;;;;;;;;4.67;4.67;;;;;;;;117714;1192;25546;-73
2023/03/30 13:11:53;;;;;;;;;8.00;3.00;;;;;;;;117769;1180;25031;-76
2023/03/30 13:14:38;;;;;;;;;5.50;5.00;;;;;;;;117662;1180;24695;-73
2023/03/30 13:17:13;;;;;;;;;7.00;5.00;;;;;;;;117544;1184;25169;-75
2023/03/30 13:19:47;;;;;;;;;6.00;4.75;;;;;;;;117804;1193;26025;-70
2023/03/30 13:22:16;;;;;;;;;6.00;5.00;;;;;;;;117581;1180;25397;-70
2023/03/30 13:24:46;;;;;;;;;5.00;3.00;;;;;;;;117724;1190;26261;-75
2023/03/30 13:27:17;;;;;;;;;7.00;7.00;;;;;;;;117747;1180;25565;-64
2023/03/30 13:30:01;;;;;;;;;6.75;4.75;;;;;;;;117781;1180;25434;-65
2023/03/30 13:32:49;;;;;;;;;7.33;5.00;;;;;;;;117722;1193;25200;-66
2023/03/30 13:35:42;;;;;;;;;9.00;6.50;;;;;;;;117720;1180;25062;-68
2023/03/30 13:38:27;;;;;;;;;9.00;5.00;;;;;;;;117638;1181;25307;-63
2023/03/30 13:41:41;;;;;;;;;6.50;6.00;;;;;;;;117617;1189;25096;-62
2023/03/30 13:44:31;;;;;;;;;8.75;5.00;;;;;;;;118189;1180;25439;-63
2023/03/30 13:47:06;;;;;;;;;8.00;7.00;;;;;;;;117720;1192;25632;-65
2023/03/30 13:50:01;;;;;;;;;9.00;5.50;;;;;;;;117648;1180;25161;-62
2023/03/30 13:52:50;;;;;;;;;6.00;6.00;;;;;;;;117526;1187;24811;-64
2023/03/30 13:55:34;;;;;;;;;7.00;3.00;;;;;;;;117711;1193;25608;-62
2023/03/30 13:58:16;;;;;;;;;8.67;6.00;;;;;;;;117721;1181;24925;-62
2023/03/30 14:00:58;;;;;;;;;7.50;5.50;;;;;;;;117727;1187;24910;-63
2023/03/30 14:03:33;;;;;;;;;6.67;6.00;;;;;;;;117735;1181;25551;-63
2023/03/30 14:06:25;;;;;;;;;6.00;5.33;;;;;;;;117670;1193;25283;-63
2023/03/30 14:09:05;;;;;;;;;9.00;8.00;;;;;;;;117665;1180;25862;-63
2023/03/30 14:11:56;;;;;;;;;9.25;6.50;;;;;;;;117535;1180;25702;-63
2023/03/30 14:14:30;;;;;;;;;10.50;9.50;;;;;;;;117492;1186;25278;-63
2023/03/30 14:17:00;;;;;;;;;11.50;9.00;;;;;;;;117496;1180;25148;-61
2023/03/30 14:19:36;;;;;;;;;7.00;6.00;;;;;;;;117532;1181;25122;-62
2023/03/30 14:22:20;;;;;;;;;8.00;5.00;;;;;;;;117680;1180;25700;-62
2023/03/30 14:25:00;;;;;;;;;7.00;5.00;;;;;;;;117665;1180;25188;-62
2023/03/30 14:27:35;;;;;;;;;6.67;5.33;;;;;;;;117693;1181;25196;-62
2023/03/30 14:30:18;;;;;;;;;10.50;8.00;;;;;;;;117756;1180;25143;-63
2023/03/30 14:32:46;;;;;;;;;9.33;7.00;;;;;;;;117816;1180;25453;-64
2023/03/30 14:35:19;;;;;;;;;8.00;6.00;;;;;;;;117511;1186;25519;-65
2023/03/30 14:37:48;;;;;;;;;9.33;8.33;;;;;;;;117820;1193;24746;-63
2023/03/30 14:40:22;;;;;;;;;5.00;5.00;;;;;;;;117522;1190;24758;-63
2023/03/30 14:42:50;;;;;;;;;11.25;5.75;;;;;;;;117538;1193;24910;-63
2023/03/30 14:45:19;;;;;;;;;8.00;7.00;;;;;;;;117546;1180;26157;-62
2023/03/30 14:47:48;;;;;;;;;5.75;5.00;;;;;;;;117521;1193;24917;-63
2023/03/30 14:50:17;;;;;;;;;8.00;6.00;;;;;;;;117515;1180;25243;-63
2023/03/30 14:52:46;;;;;;;;;4.67;3.67;;;;;;;;117509;1183;25543;-62
2023/03/30 14:55:23;;;;;;;;;6.67;5.67;;;;;;;;117514;1180;24966;-63
2023/03/30 14:57:52;;;;;;;;;6.50;4.25;;;;;;;;117509;1180;25664;-63
2023/03/30 15:00:23;;;;;;;;;8.33;4.33;;;;;;;;117851;1180;24897;-63
2023/03/30 15:02:55;;;;;;;;;8.50;6.00;;;;;;;;117486;1182;25132;-64
2023/03/30 15:05:34;;;;;;;;;10.50;6.00;;;;;;;;117741;1185;25513;-63
2023/03/30 15:08:03;;;;;;;;;7.67;6.00;;;;;;;;117506;1180;24722;-63
2023/03/30 15:10:43;;;;;;;;;8.00;5.00;;;;;;;;117533;1181;25409;-63
2023/03/30 15:13:41;;;;;;;;;6.00;5.00;;;;;;;;117625;1193;25231;-62